createdAt,value
2022-08-27T00:02:10.103Z,16.35
2022-08-27T00:04:44.700Z,16.32
2022-08-27T00:07:15.453Z,16.29
2022-08-27T00:09:43.879Z,16.25
2022-08-27T00:12:12.392Z,16.22
2022-08-27T00:14:40.845Z,16.21
2022-08-27T00:17:08.843Z,16.18
2022-08-27T00:19:40.018Z,16.14
2022-08-27T00:22:09.425Z,16.10
2022-08-27T00:24:44.641Z,16.08
2022-08-27T00:27:17.431Z,16.04
2022-08-27T00:29:46.041Z,16.02
2022-08-27T00:32:17.408Z,16.00
2022-08-27T00:34:45.439Z,15.94
2022-08-27T00:37:13.629Z,15.96
2022-08-27T00:39:41.757Z,15.90
2022-08-27T00:42:10.057Z,15.82
2022-08-27T00:44:38.877Z,15.73
2022-08-27T00:47:17.013Z,15.67
2022-08-27T00:50:01.278Z,15.57
2022-08-27T00:52:42.887Z,15.50
2022-08-27T00:55:18.026Z,15.43
2022-08-27T00:58:01.799Z,15.38
2022-08-27T01:00:33.147Z,15.39
2022-08-27T01:03:04.911Z,15.34
2022-08-27T01:05:34.911Z,15.27
2022-08-27T01:08:09.894Z,15.22
2022-08-27T01:10:39.667Z,15.19
2022-08-27T01:13:14.031Z,15.17
2022-08-27T01:15:43.056Z,15.14
2022-08-27T01:18:13.782Z,15.10
2022-08-27T01:20:55.332Z,15.08
2022-08-27T01:23:26.535Z,15.08
2022-08-27T01:25:54.989Z,15.05
2022-08-27T01:28:32.364Z,15.04
2022-08-27T01:31:13.524Z,15.01
2022-08-27T01:33:55.649Z,14.97
2022-08-27T01:36:24.179Z,14.95
2022-08-27T01:38:52.015Z,14.93
2022-08-27T01:41:23.088Z,14.90
2022-08-27T01:43:51.981Z,14.90
2022-08-27T01:46:25.442Z,14.90
2022-08-27T01:48:54.421Z,14.85
2022-08-27T01:51:23.122Z,14.84
2022-08-27T01:53:51.212Z,14.80
2022-08-27T01:56:19.796Z,14.80
2022-08-27T01:58:47.940Z,14.77
2022-08-27T02:01:19.659Z,14.83
2022-08-27T02:03:48.593Z,14.81
2022-08-27T02:06:16.453Z,14.76
2022-08-27T02:08:44.470Z,14.72
2022-08-27T02:11:12.396Z,14.66
2022-08-27T02:13:40.427Z,14.65
2022-08-27T02:16:09.553Z,14.65
2022-08-27T02:18:38.513Z,14.60
2022-08-27T02:21:10.385Z,14.63
2022-08-27T02:23:42.182Z,14.66
2022-08-27T02:26:10.023Z,14.66
2022-08-27T02:28:38.415Z,14.70
2022-08-27T02:31:07.626Z,14.76
2022-08-27T02:33:36.119Z,14.76
2022-08-27T02:36:04.692Z,14.76
2022-08-27T02:38:34.371Z,14.76
2022-08-27T02:41:02.861Z,14.74
2022-08-27T02:43:31.478Z,14.74
2022-08-27T02:45:59.527Z,14.70
2022-08-27T02:48:27.643Z,14.65
2022-08-27T02:50:55.577Z,14.67
2022-08-27T02:53:24.036Z,14.63
2022-08-27T02:55:52.213Z,14.62
2022-08-27T02:58:20.007Z,14.62
2022-08-27T03:00:48.973Z,14.62
2022-08-27T03:03:18.129Z,14.62
2022-08-27T03:05:46.037Z,14.62
2022-08-27T03:08:13.970Z,14.60
2022-08-27T03:10:41.950Z,14.63
2022-08-27T03:13:10.012Z,14.63
2022-08-27T03:15:38.022Z,14.65
2022-08-27T03:18:18.340Z,14.69
2022-08-27T03:20:57.532Z,14.74
2022-08-27T03:23:28.158Z,14.80
2022-08-27T03:25:58.865Z,14.83
2022-08-27T03:28:30.832Z,14.81
2022-08-27T03:31:01.506Z,14.83
2022-08-27T03:33:35.271Z,14.84
2022-08-27T03:36:04.529Z,14.83
2022-08-27T03:38:32.971Z,14.83
2022-08-27T03:41:02.702Z,14.80
2022-08-27T03:43:30.698Z,14.79
2022-08-27T03:46:02.456Z,14.77
2022-08-27T03:48:34.194Z,14.74
2022-08-27T03:51:10.608Z,14.73
2022-08-27T03:53:40.827Z,14.70
2022-08-27T03:56:09.892Z,14.66
2022-08-27T03:58:41.238Z,14.67
2022-08-27T04:01:09.813Z,14.66
2022-08-27T04:03:38.423Z,14.63
2022-08-27T04:06:08.326Z,14.62
2022-08-27T04:08:36.970Z,14.63
2022-08-27T04:11:08.354Z,14.56
2022-08-27T04:13:36.774Z,14.57
2022-08-27T04:16:06.686Z,14.56
2022-08-27T04:18:34.858Z,14.56
2022-08-27T04:21:12.879Z,14.52
2022-08-27T04:23:45.069Z,14.49
2022-08-27T04:26:13.069Z,14.47
2022-08-27T04:28:41.071Z,14.46
2022-08-27T04:31:16.292Z,14.43
2022-08-27T04:33:50.804Z,14.47
2022-08-27T04:36:20.405Z,14.43
2022-08-27T04:38:48.606Z,14.42
2022-08-27T04:41:19.999Z,14.43
2022-08-27T04:43:51.225Z,14.39
2022-08-27T04:46:24.462Z,14.39
2022-08-27T04:48:53.713Z,14.38
2022-08-27T04:51:22.209Z,14.36
2022-08-27T04:53:51.588Z,14.39
2022-08-27T04:56:23.903Z,14.39
2022-08-27T04:58:52.803Z,14.38
2022-08-27T05:01:27.718Z,14.39
2022-08-27T05:03:58.693Z,14.45
2022-08-27T05:06:27.402Z,14.55
2022-08-27T05:08:57.173Z,14.57
2022-08-27T05:11:32.185Z,14.70
2022-08-27T05:14:05.253Z,14.74
2022-08-27T05:16:35.128Z,14.80
2022-08-27T05:19:05.481Z,14.93
2022-08-27T05:21:36.082Z,15.34
2022-08-27T05:24:09.709Z,16.32
2022-08-27T05:26:37.856Z,17.17
2022-08-27T05:29:09.039Z,17.97
2022-08-27T05:31:40.182Z,18.49
2022-08-27T05:34:10.583Z,19.08
2022-08-27T05:36:49.047Z,19.41
2022-08-27T05:39:17.799Z,19.67
2022-08-27T05:41:45.813Z,19.80
2022-08-27T05:47:04.008Z,20.68
2022-08-27T05:49:32.084Z,21.21
2022-08-27T05:52:02.005Z,21.04
2022-08-27T05:54:29.888Z,21.03
2022-08-27T05:56:57.721Z,20.83
2022-08-27T05:59:48.600Z,20.68
2022-08-27T06:02:16.518Z,20.97
2022-08-27T06:04:44.395Z,20.91
2022-08-27T06:07:12.672Z,21.21
2022-08-27T06:09:41.670Z,21.59
2022-08-27T06:12:10.445Z,21.90
2022-08-27T06:14:38.740Z,21.82
2022-08-27T06:17:06.688Z,21.89
2022-08-27T06:19:36.573Z,21.92
2022-08-27T06:22:10.451Z,21.93
2022-08-27T06:24:40.619Z,22.22
2022-08-27T06:27:11.830Z,22.52
2022-08-27T06:29:40.464Z,21.93
2022-08-27T06:32:09.556Z,21.59
2022-08-27T06:34:38.979Z,21.01
2022-08-27T06:37:08.150Z,20.68
2022-08-27T06:39:38.394Z,19.72
2022-08-27T06:42:11.931Z,19.12
2022-08-27T06:44:41.243Z,18.60
2022-08-27T06:47:09.369Z,18.69
2022-08-27T06:49:40.843Z,18.60
2022-08-27T06:52:09.467Z,19.36
2022-08-27T06:54:37.654Z,19.25
2022-08-27T06:57:08.802Z,19.59
2022-08-27T06:59:40.146Z,19.54
2022-08-27T07:02:15.415Z,19.48
2022-08-27T07:04:43.470Z,20.53
2022-08-27T07:07:13.470Z,21.51
2022-08-27T07:09:42.775Z,22.43
2022-08-27T07:12:10.823Z,22.30
2022-08-27T07:14:39.129Z,22.43
2022-08-27T07:17:11.358Z,23.04
2022-08-27T07:19:44.590Z,23.43
2022-08-27T07:22:13.116Z,23.52
2022-08-27T07:24:41.222Z,24.00
2022-08-27T07:27:09.630Z,23.48
2022-08-27T07:29:38.009Z,23.16
2022-08-27T07:32:08.202Z,23.18
2022-08-27T07:34:36.594Z,22.82
2022-08-27T07:37:07.994Z,22.59
2022-08-27T07:39:38.598Z,23.02
2022-08-27T07:42:39.084Z,23.45
2022-08-27T07:45:08.608Z,23.76
2022-08-27T07:47:36.484Z,23.57
2022-08-27T07:50:05.208Z,22.90
2022-08-27T07:52:34.577Z,22.72
2022-08-27T07:55:02.691Z,22.82
2022-08-27T07:57:32.403Z,23.06
2022-08-27T08:00:00.315Z,23.37
2022-08-27T08:02:28.288Z,23.69
2022-08-27T08:04:56.718Z,23.54
2022-08-27T08:07:26.906Z,23.33
2022-08-27T08:09:55.140Z,23.11
2022-08-27T08:12:26.585Z,23.78
2022-08-27T08:14:57.879Z,23.62
2022-08-27T08:17:26.508Z,23.44
2022-08-27T08:20:17.570Z,23.54
2022-08-27T08:22:44.020Z,23.04
2022-08-27T08:25:14.000Z,23.16
2022-08-27T08:27:42.923Z,22.88
2022-08-27T08:30:12.243Z,22.71
2022-08-27T08:32:40.482Z,22.72
2022-08-27T08:35:09.941Z,22.41
2022-08-27T08:37:38.252Z,22.49
2022-08-27T08:40:11.152Z,22.17
2022-08-27T08:42:53.096Z,22.43
2022-08-27T08:45:26.834Z,22.56
2022-08-27T08:48:08.612Z,22.37
2022-08-27T08:50:48.615Z,22.38
2022-08-27T08:54:07.312Z,22.10
2022-08-27T08:57:04.183Z,21.63
2022-08-27T08:59:42.467Z,21.35
2022-08-27T09:02:14.336Z,21.34
2022-08-27T09:04:43.483Z,21.03
2022-08-27T09:07:36.775Z,21.39
2022-08-27T09:10:28.878Z,21.04
2022-08-27T09:13:02.319Z,20.99
2022-08-27T09:15:36.472Z,20.89
2022-08-27T09:18:14.547Z,21.07
2022-08-27T09:20:49.568Z,20.97
2022-08-27T09:23:21.908Z,21.63
2022-08-27T09:25:49.946Z,21.93
2022-08-27T09:28:45.006Z,22.16
2022-08-27T09:31:14.514Z,22.62
2022-08-27T09:33:55.709Z,22.63
2022-08-27T09:36:25.861Z,22.47
2022-08-27T09:39:02.288Z,22.49
2022-08-27T09:41:40.233Z,22.22
2022-08-27T09:44:12.014Z,21.90
2022-08-27T09:46:51.520Z,21.75
2022-08-27T09:49:20.245Z,21.76
2022-08-27T09:51:51.639Z,21.58
2022-08-27T09:54:44.132Z,21.32
2022-08-27T09:57:30.695Z,21.66
2022-08-27T09:59:59.389Z,21.69
2022-08-27T10:02:28.023Z,21.59
2022-08-27T10:05:01.233Z,21.61
2022-08-27T10:07:38.056Z,21.51
2022-08-27T10:10:18.033Z,21.17
2022-08-27T10:13:01.661Z,21.01
2022-08-27T10:15:58.489Z,21.20
2022-08-27T10:18:46.515Z,21.18
2022-08-27T10:21:24.204Z,21.32
2022-08-27T10:24:13.129Z,21.93
2022-08-27T10:27:08.010Z,22.47
2022-08-27T10:29:56.339Z,22.30
2022-08-27T10:32:52.260Z,22.33
2022-08-27T10:35:31.093Z,21.86
2022-08-27T10:38:30.704Z,21.51
2022-08-27T10:41:23.408Z,21.25
2022-08-27T10:44:21.593Z,21.38
2022-08-27T10:46:58.874Z,21.80
2022-08-27T10:49:42.852Z,21.88
2022-08-27T10:52:29.187Z,21.83
2022-08-27T10:55:14.185Z,21.96
2022-08-27T10:58:03.298Z,21.97
2022-08-27T11:00:46.455Z,21.89
2022-08-27T11:03:48.519Z,21.97
2022-08-27T11:06:32.577Z,22.14
2022-08-27T11:09:14.444Z,22.14
2022-08-27T11:12:14.187Z,22.06
2022-08-27T11:15:00.754Z,22.16
2022-08-27T11:17:40.059Z,22.10
2022-08-27T11:20:23.104Z,22.11
2022-08-27T11:23:15.648Z,22.22
2022-08-27T11:26:08.949Z,22.28
2022-08-27T11:29:01.232Z,22.21
2022-08-27T11:32:18.755Z,22.01
2022-08-27T11:39:42.889Z,21.99
2022-08-27T11:42:46.758Z,21.76
2022-08-27T11:45:46.621Z,21.86
2022-08-27T11:48:41.950Z,21.82
2022-08-27T11:51:34.115Z,22.06
2022-08-27T11:54:14.049Z,21.99
2022-08-27T11:56:45.420Z,21.99
2022-08-27T11:59:40.461Z,22.08
2022-08-27T12:02:28.594Z,21.96
2022-08-27T12:05:41.443Z,21.94
2022-08-27T12:08:33.306Z,21.96
2022-08-27T12:11:23.602Z,21.99
2022-08-27T12:14:12.799Z,22.25
2022-08-27T12:17:14.590Z,22.28
2022-08-27T12:20:17.547Z,22.17
2022-08-27T12:23:30.072Z,22.21
2022-08-27T12:26:42.749Z,22.31
2022-08-27T12:29:42.234Z,22.40
2022-08-27T12:32:28.593Z,22.47
2022-08-27T12:35:09.669Z,22.48
2022-08-27T12:37:57.820Z,22.49
2022-08-27T12:40:31.104Z,22.71
2022-08-27T12:43:20.236Z,22.61
2022-08-27T12:46:13.251Z,22.86
2022-08-27T12:48:55.776Z,22.82
2022-08-27T12:51:34.709Z,22.88
2022-08-27T12:54:30.245Z,22.66
2022-08-27T12:57:09.965Z,22.79
2022-08-27T12:59:43.996Z,22.75
2022-08-27T13:02:21.424Z,22.66
2022-08-27T13:04:51.649Z,22.72
2022-08-27T13:07:38.013Z,22.58
2022-08-27T13:10:14.545Z,22.51
2022-08-27T13:12:45.309Z,22.56
2022-08-27T13:15:16.327Z,22.77
2022-08-27T13:17:49.512Z,22.72
2022-08-27T13:20:23.244Z,22.96
2022-08-27T13:22:54.521Z,23.14
2022-08-27T13:25:38.461Z,23.06
2022-08-27T13:28:14.875Z,22.93
2022-08-27T13:30:47.599Z,22.76
2022-08-27T13:33:28.805Z,22.61
2022-08-27T13:35:58.633Z,22.65
2022-08-27T13:38:31.821Z,22.75
2022-08-27T13:41:08.599Z,22.63
2022-08-27T13:43:43.704Z,22.40
2022-08-27T13:46:22.234Z,22.43
2022-08-27T13:48:56.622Z,22.55
2022-08-27T13:51:32.483Z,22.34
2022-08-27T13:54:18.574Z,22.31
2022-08-27T13:56:57.834Z,22.34
2022-08-27T13:59:30.751Z,22.22
2022-08-27T14:02:12.512Z,22.35
2022-08-27T14:04:42.239Z,22.35
2022-08-27T14:07:24.470Z,22.47
2022-08-27T14:10:09.037Z,22.59
2022-08-27T14:12:41.076Z,22.79
2022-08-27T14:15:31.355Z,22.55
2022-08-27T14:18:00.108Z,22.71
2022-08-27T14:20:28.831Z,22.66
2022-08-27T14:22:58.495Z,22.69
2022-08-27T14:25:26.937Z,22.75
2022-08-27T14:27:57.407Z,22.66
2022-08-27T14:30:29.433Z,22.76
2022-08-27T14:33:00.450Z,22.68
2022-08-27T14:35:35.017Z,22.56
2022-08-27T14:38:21.517Z,22.49
2022-08-27T14:40:52.968Z,22.55
2022-08-27T14:43:23.094Z,22.62
2022-08-27T14:45:52.267Z,22.69
2022-08-27T14:48:28.618Z,22.75
2022-08-27T14:50:59.874Z,22.66
2022-08-27T14:53:29.408Z,22.48
2022-08-27T14:56:00.654Z,22.63
2022-08-27T14:58:29.477Z,22.72
2022-08-27T15:00:59.997Z,22.72
2022-08-27T15:03:44.980Z,22.49
2022-08-27T15:06:14.756Z,22.49
2022-08-27T15:08:44.684Z,22.21
2022-08-27T15:11:32.959Z,22.21
2022-08-27T15:14:05.050Z,22.18
2022-08-27T15:16:40.917Z,22.11
2022-08-27T15:19:10.983Z,22.16
2022-08-27T15:21:40.604Z,22.07
2022-08-27T15:24:38.783Z,22.17
2022-08-27T15:27:07.080Z,22.24
2022-08-27T15:29:35.232Z,22.16
2022-08-27T15:32:04.725Z,22.24
2022-08-27T15:34:33.127Z,22.30
2022-08-27T15:37:01.415Z,22.33
2022-08-27T15:39:30.159Z,22.28
2022-08-27T15:42:06.677Z,22.33
2022-08-27T15:44:38.779Z,22.30
2022-08-27T15:47:10.221Z,22.07
2022-08-27T15:49:44.748Z,22.04
2022-08-27T15:52:17.905Z,21.96
2022-08-27T15:54:58.929Z,22.00
2022-08-27T15:57:29.857Z,22.01
2022-08-27T16:00:11.442Z,22.06
2022-08-27T16:02:41.065Z,22.07
2022-08-27T16:05:10.797Z,22.17
2022-08-27T16:07:42.155Z,22.28
2022-08-27T16:10:15.729Z,22.21
2022-08-27T16:12:48.799Z,22.14
2022-08-27T16:15:46.740Z,22.13
2022-08-27T16:18:25.718Z,22.08
2022-08-27T16:21:02.777Z,22.04
2022-08-27T16:23:38.867Z,22.06
2022-08-27T16:26:10.385Z,22.06
2022-08-27T16:28:41.780Z,21.96
2022-08-27T16:31:13.767Z,21.99
2022-08-27T16:33:50.272Z,21.92
2022-08-27T16:36:22.027Z,21.78
2022-08-27T16:39:15.221Z,21.71
2022-08-27T16:41:53.722Z,21.69
2022-08-27T16:44:37.076Z,21.67
2022-08-27T16:47:19.384Z,21.56
2022-08-27T16:50:24.306Z,21.61
2022-08-27T16:53:02.694Z,21.46
2022-08-27T16:55:33.631Z,21.41
2022-08-27T16:58:09.102Z,21.37
2022-08-27T17:00:40.245Z,21.27
2022-08-27T17:03:11.577Z,21.23
2022-08-27T17:05:39.866Z,21.08
2022-08-27T17:08:09.509Z,20.94
2022-08-27T17:10:45.779Z,20.84
2022-08-27T17:13:23.228Z,20.82
2022-08-27T17:16:01.509Z,20.71
2022-08-27T17:18:35.129Z,20.65
2022-08-27T17:21:04.431Z,20.56
2022-08-27T17:23:39.781Z,20.52
2022-08-27T17:26:10.784Z,20.45
2022-08-27T17:28:41.521Z,20.41
2022-08-27T17:31:16.835Z,20.34
2022-08-27T17:34:00.706Z,20.22
2022-08-27T17:36:30.967Z,20.16
2022-08-27T17:39:02.880Z,20.10
2022-08-27T17:41:40.338Z,20.11
2022-08-27T17:44:31.579Z,20.06
2022-08-27T17:47:02.815Z,20.00
2022-08-27T17:49:31.363Z,20.00
2022-08-27T17:52:02.268Z,19.82
2022-08-27T17:54:38.049Z,19.79
2022-08-27T17:57:25.782Z,19.69
2022-08-27T17:59:55.122Z,19.66
2022-08-27T18:02:33.568Z,19.65
2022-08-27T18:05:09.078Z,19.63
2022-08-27T18:07:40.257Z,19.62
2022-08-27T18:10:26.966Z,19.59
2022-08-27T18:13:08.442Z,19.54
2022-08-27T18:15:40.140Z,19.48
2022-08-27T18:18:19.104Z,19.39
2022-08-27T18:20:49.229Z,19.31
2022-08-27T18:23:21.530Z,19.25
2022-08-27T18:25:51.200Z,19.14
2022-08-27T18:28:21.833Z,19.07
2022-08-27T18:30:51.786Z,19.00
2022-08-27T18:33:20.061Z,18.91
2022-08-27T18:35:48.798Z,18.83
2022-08-27T18:38:20.055Z,18.74
2022-08-27T18:40:49.855Z,18.67
2022-08-27T18:43:22.406Z,18.57
2022-08-27T18:45:51.683Z,18.48
2022-08-27T18:48:22.488Z,18.44
2022-08-27T18:50:57.166Z,18.31
2022-08-27T18:53:31.290Z,18.24
2022-08-27T18:56:04.371Z,18.15
2022-08-27T18:58:32.614Z,18.07
2022-08-27T19:01:02.691Z,18.01
2022-08-27T19:03:38.219Z,17.96
2022-08-27T19:06:08.793Z,17.90
2022-08-27T19:08:40.730Z,17.86
2022-08-27T19:11:10.589Z,17.79
2022-08-27T19:13:39.623Z,17.70
2022-08-27T19:16:22.037Z,17.66
2022-08-27T19:18:50.331Z,17.61
2022-08-27T19:21:18.339Z,17.59
2022-08-27T19:23:50.803Z,17.52
2022-08-27T19:26:23.494Z,17.45
2022-08-27T19:28:54.057Z,17.34
2022-08-27T19:31:22.240Z,17.31
2022-08-27T19:33:50.843Z,17.25
2022-08-27T19:36:20.780Z,17.17
2022-08-27T19:38:51.240Z,17.11
2022-08-27T19:41:19.968Z,17.04
2022-08-27T19:43:47.921Z,16.99
2022-08-27T19:46:22.145Z,16.93
2022-08-27T19:48:50.492Z,16.85
2022-08-27T19:51:21.190Z,16.77
2022-08-27T19:53:49.337Z,16.73
2022-08-27T19:56:18.414Z,16.63
2022-08-27T19:58:49.117Z,16.62
2022-08-27T20:01:18.690Z,16.53
2022-08-27T20:03:46.993Z,16.49
2022-08-27T20:06:15.189Z,16.49
2022-08-27T20:08:45.696Z,16.46
2022-08-27T20:11:18.491Z,16.39
2022-08-27T20:13:51.017Z,16.33
2022-08-27T20:16:21.428Z,16.30
2022-08-27T20:18:50.081Z,16.22
2022-08-27T20:21:18.050Z,16.17
2022-08-27T20:23:46.455Z,16.15
2022-08-27T20:26:14.443Z,16.10
2022-08-27T20:28:45.786Z,16.08
2022-08-27T20:31:16.322Z,16.02
2022-08-27T20:33:44.824Z,15.96
2022-08-27T20:36:29.844Z,15.94
2022-08-27T20:38:57.864Z,15.89
2022-08-27T20:41:26.695Z,15.86
2022-08-27T20:44:04.585Z,15.80
2022-08-27T20:46:35.196Z,15.76
2022-08-27T20:49:04.624Z,15.71
2022-08-27T20:51:53.472Z,15.66
2022-08-27T20:54:22.083Z,15.59
2022-08-27T20:56:52.886Z,15.55
2022-08-27T20:59:53.704Z,15.53
2022-08-27T21:02:27.788Z,15.45
2022-08-27T21:04:56.901Z,15.40
2022-08-27T21:07:26.054Z,15.36
2022-08-27T21:09:56.554Z,15.35
2022-08-27T21:12:31.213Z,15.32
2022-08-27T21:14:59.756Z,15.28
2022-08-27T21:17:29.433Z,15.25
2022-08-27T21:20:00.007Z,15.24
2022-08-27T21:22:28.658Z,15.17
2022-08-27T21:24:56.635Z,15.11
2022-08-27T21:27:25.555Z,15.08
2022-08-27T21:29:53.713Z,15.01
2022-08-27T21:32:21.819Z,15.00
2022-08-27T21:34:50.082Z,14.98
2022-08-27T21:37:18.719Z,14.97
2022-08-27T21:39:46.656Z,14.94
2022-08-27T21:42:15.711Z,14.87
2022-08-27T21:44:44.062Z,14.85
2022-08-27T21:47:12.146Z,14.80
2022-08-27T21:49:41.197Z,14.79
2022-08-27T21:52:10.490Z,14.74
2022-08-27T21:54:42.214Z,14.72
2022-08-27T21:57:14.278Z,14.69
2022-08-27T21:59:48.017Z,14.63
2022-08-27T22:05:09.030Z,14.53
2022-08-27T22:07:37.003Z,14.49
2022-08-27T22:10:08.545Z,14.42
2022-08-27T22:12:38.004Z,14.39
2022-08-27T22:15:08.743Z,14.35
2022-08-27T22:17:37.547Z,14.32
2022-08-27T22:20:09.923Z,14.26
2022-08-27T22:22:38.691Z,14.24
2022-08-27T22:25:10.547Z,14.22
2022-08-27T22:27:40.072Z,14.19
2022-08-27T22:30:11.335Z,14.19
2022-08-27T22:32:40.213Z,14.17
2022-08-27T22:35:10.169Z,14.15
2022-08-27T22:37:38.744Z,14.08
2022-08-27T22:40:20.067Z,14.10
2022-08-27T22:42:51.051Z,14.04
2022-08-27T22:45:20.586Z,13.98
2022-08-27T22:47:49.244Z,13.95
2022-08-27T22:50:17.956Z,13.95
2022-08-27T22:52:47.585Z,13.91
2022-08-27T22:55:20.891Z,13.93
2022-08-27T22:57:51.783Z,13.85
2022-08-27T23:00:25.306Z,13.83
2022-08-27T23:02:54.222Z,13.77
2022-08-27T23:05:24.486Z,13.77
2022-08-27T23:07:56.830Z,13.74
2022-08-27T23:10:25.883Z,13.74
2022-08-27T23:12:56.358Z,13.69
2022-08-27T23:15:29.925Z,13.66
2022-08-27T23:17:58.895Z,13.60
2022-08-27T23:20:29.953Z,13.59
2022-08-27T23:22:58.573Z,13.56
2022-08-27T23:25:47.261Z,13.53
2022-08-27T23:28:16.100Z,13.49
2022-08-27T23:30:45.582Z,13.49
2022-08-27T23:33:17.408Z,13.43
2022-08-27T23:35:48.400Z,13.38
2022-08-27T23:38:24.239Z,13.34
2022-08-27T23:40:53.521Z,13.35
2022-08-27T23:43:22.876Z,13.30
2022-08-27T23:45:52.004Z,13.30
2022-08-27T23:48:21.237Z,13.29
2022-08-27T23:50:53.049Z,13.28
2022-08-27T23:53:21.621Z,13.23
2022-08-27T23:55:49.678Z,13.23
2022-08-27T23:58:17.621Z,13.19
